createdAt,value
2023-03-04T00:01:29.637Z,1.90
2023-03-04T00:03:56.238Z,1.65
2023-03-04T00:06:22.956Z,1.48
2023-03-04T00:08:49.520Z,2.10
2023-03-04T00:11:16.375Z,2.25
2023-03-04T00:13:43.273Z,1.83
2023-03-04T00:16:09.917Z,2.10
2023-03-04T00:18:36.729Z,1.63
2023-03-04T00:21:03.545Z,1.73
2023-03-04T00:23:30.162Z,1.10
2023-03-04T00:25:56.743Z,2.05
2023-03-04T00:28:23.627Z,1.55
2023-03-04T00:30:50.444Z,1.70
2023-03-04T00:33:17.100Z,1.90
2023-03-04T00:35:43.817Z,2.22
2023-03-04T00:38:10.477Z,1.63
2023-03-04T00:40:37.119Z,1.67
2023-03-04T00:43:03.795Z,1.60
2023-03-04T00:45:30.469Z,1.27
2023-03-04T00:47:57.054Z,1.63
2023-03-04T00:50:23.989Z,2.03
2023-03-04T00:52:50.558Z,1.85
2023-03-04T00:55:17.429Z,1.25
2023-03-04T00:57:44.102Z,1.73
2023-03-04T01:00:11.683Z,2.00
2023-03-04T01:02:38.364Z,1.40
2023-03-04T01:05:05.637Z,1.25
2023-03-04T01:07:33.017Z,1.30
2023-03-04T01:10:00.300Z,1.75
2023-03-04T01:12:28.114Z,1.73
2023-03-04T01:14:54.892Z,1.60
2023-03-04T01:17:21.820Z,2.10
2023-03-04T01:19:48.676Z,1.60
2023-03-04T01:22:16.754Z,1.73
2023-03-04T01:24:43.692Z,1.85
2023-03-04T01:27:10.503Z,1.77
2023-03-04T01:29:37.156Z,1.23
2023-03-04T01:32:04.550Z,1.38
2023-03-04T01:34:31.206Z,1.75
2023-03-04T01:36:57.800Z,1.23
2023-03-04T01:39:24.524Z,1.30
2023-03-04T01:41:51.270Z,1.90
2023-03-04T01:44:18.010Z,1.40
2023-03-04T01:46:50.104Z,1.90
2023-03-04T01:49:17.181Z,1.65
2023-03-04T01:51:49.100Z,1.52
2023-03-04T01:54:17.096Z,1.30
2023-03-04T01:56:46.492Z,1.55
2023-03-04T01:59:20.823Z,1.90
2023-03-04T02:01:55.764Z,1.48
2023-03-04T02:04:29.002Z,1.58
2023-03-04T02:06:57.297Z,1.75
2023-03-04T02:09:24.098Z,1.83
2023-03-04T02:11:51.592Z,1.90
2023-03-04T02:14:19.328Z,2.10
2023-03-04T02:16:46.682Z,1.50
2023-03-04T02:19:36.663Z,1.73
2023-03-04T02:22:03.615Z,1.60
2023-03-04T02:24:40.394Z,1.52
2023-03-04T02:27:07.090Z,1.35
2023-03-04T02:29:33.900Z,1.58
2023-03-04T02:32:00.624Z,2.10
2023-03-04T02:34:33.762Z,1.38
2023-03-04T02:37:02.046Z,1.67
2023-03-04T02:39:33.244Z,1.45
2023-03-04T02:42:01.059Z,1.63
2023-03-04T02:44:35.717Z,1.40
2023-03-04T02:47:04.308Z,1.42
2023-03-04T02:49:32.841Z,1.50
2023-03-04T02:52:12.825Z,1.42
2023-03-04T02:54:39.659Z,1.45
2023-03-04T02:57:09.140Z,1.40
2023-03-04T02:59:37.279Z,1.40
2023-03-04T03:02:04.874Z,1.73
2023-03-04T03:04:31.749Z,1.67
2023-03-04T03:06:58.386Z,1.33
2023-03-04T03:09:25.077Z,1.20
2023-03-04T03:11:51.696Z,1.60
2023-03-04T03:14:18.355Z,1.70
2023-03-04T03:16:45.016Z,1.40
2023-03-04T03:19:11.633Z,1.80
2023-03-04T03:21:38.320Z,1.65
2023-03-04T03:24:05.060Z,1.52
2023-03-04T03:26:31.745Z,1.70
2023-03-04T03:28:58.306Z,1.90
2023-03-04T03:31:24.977Z,1.88
2023-03-04T03:33:51.648Z,1.30
2023-03-04T03:36:18.403Z,1.15
2023-03-04T03:38:45.050Z,1.73
2023-03-04T03:41:11.735Z,1.83
2023-03-04T03:43:38.461Z,1.25
2023-03-04T03:46:05.233Z,0.80
2023-03-04T03:48:31.880Z,1.30
2023-03-04T03:50:58.575Z,1.55
2023-03-04T03:53:25.275Z,0.93
2023-03-04T03:55:51.882Z,1.65
2023-03-04T03:58:18.533Z,1.25
2023-03-04T04:00:45.196Z,1.20
2023-03-04T04:03:16.952Z,1.60
2023-03-04T04:05:43.781Z,1.27
2023-03-04T04:08:14.311Z,1.38
2023-03-04T04:10:41.947Z,0.95
2023-03-04T04:13:09.190Z,1.15
2023-03-04T04:15:36.820Z,1.35
2023-03-04T04:18:03.485Z,1.20
2023-03-04T04:20:30.198Z,1.05
2023-03-04T04:22:57.032Z,1.20
2023-03-04T04:25:23.924Z,1.08
2023-03-04T04:27:50.515Z,1.13
2023-03-04T04:30:17.262Z,1.13
2023-03-04T04:32:43.875Z,0.93
2023-03-04T04:35:10.661Z,1.00
2023-03-04T04:37:37.287Z,0.90
2023-03-04T04:40:04.435Z,0.68
2023-03-04T04:42:31.162Z,0.80
2023-03-04T04:44:57.836Z,1.00
2023-03-04T04:47:24.483Z,0.90
2023-03-04T04:49:51.901Z,1.27
2023-03-04T04:52:18.607Z,1.05
2023-03-04T04:54:45.344Z,0.88
2023-03-04T04:57:12.098Z,1.20
2023-03-04T04:59:38.737Z,0.90
2023-03-04T05:02:05.316Z,1.17
2023-03-04T05:04:32.008Z,1.13
2023-03-04T05:06:58.605Z,0.80
2023-03-04T05:09:25.217Z,1.50
2023-03-04T05:11:51.894Z,0.85
2023-03-04T05:14:18.646Z,1.10
2023-03-04T05:16:45.351Z,1.00
2023-03-04T05:19:12.425Z,1.30
2023-03-04T05:21:39.058Z,1.08
2023-03-04T05:24:06.069Z,0.88
2023-03-04T05:26:32.859Z,0.93
2023-03-04T05:28:59.465Z,1.08
2023-03-04T05:31:26.256Z,1.30
2023-03-04T05:33:52.909Z,1.13
2023-03-04T05:36:21.305Z,0.90
2023-03-04T05:38:48.192Z,1.25
2023-03-04T05:41:14.957Z,1.23
2023-03-04T05:43:44.379Z,0.88
2023-03-04T05:46:15.890Z,1.20
2023-03-04T05:48:43.132Z,1.20
2023-03-04T05:51:10.364Z,1.00
2023-03-04T05:53:37.323Z,0.85
2023-03-04T05:56:09.190Z,1.00
2023-03-04T05:58:35.824Z,1.10
2023-03-04T06:01:03.150Z,0.98
2023-03-04T06:03:30.107Z,1.50
2023-03-04T06:05:56.724Z,1.10
2023-03-04T06:08:23.369Z,1.17
2023-03-04T06:10:53.489Z,1.33
2023-03-04T06:13:20.460Z,1.40
2023-03-04T06:15:47.727Z,1.13
2023-03-04T06:18:14.360Z,1.20
2023-03-04T06:20:41.360Z,1.30
2023-03-04T06:23:07.971Z,1.15
2023-03-04T06:25:34.634Z,1.00
2023-03-04T06:28:01.238Z,1.13
2023-03-04T06:30:28.167Z,1.15
2023-03-04T06:32:54.967Z,0.85
2023-03-04T06:35:21.718Z,1.60
2023-03-04T06:37:49.130Z,1.50
2023-03-04T06:40:16.052Z,0.90
2023-03-04T06:42:42.788Z,1.20
2023-03-04T06:45:10.216Z,1.30
2023-03-04T06:47:37.126Z,0.90
2023-03-04T06:50:04.839Z,0.90
2023-03-04T06:52:31.498Z,1.48
2023-03-04T06:54:58.185Z,1.00
2023-03-04T06:57:24.900Z,0.98
2023-03-04T06:59:51.649Z,0.85
2023-03-04T07:02:18.507Z,1.35
2023-03-04T07:04:45.153Z,1.02
2023-03-04T07:07:12.313Z,1.30
2023-03-04T07:09:39.271Z,1.10
2023-03-04T07:12:06.038Z,1.33
2023-03-04T07:14:32.689Z,1.38
2023-03-04T07:16:59.360Z,1.33
2023-03-04T07:19:25.987Z,1.17
2023-03-04T07:21:52.603Z,0.70
2023-03-04T07:24:19.337Z,1.10
2023-03-04T07:26:45.976Z,0.77
2023-03-04T07:29:13.119Z,0.90
2023-03-04T07:31:39.932Z,0.75
2023-03-04T07:34:10.093Z,1.00
2023-03-04T07:36:37.051Z,0.98
2023-03-04T07:39:04.237Z,1.10
2023-03-04T07:41:31.525Z,1.42
2023-03-04T07:43:59.129Z,1.00
2023-03-04T07:46:26.123Z,1.05
2023-03-04T07:48:53.159Z,1.27
2023-03-04T07:51:21.705Z,0.80
2023-03-04T07:53:54.447Z,0.77
2023-03-04T07:56:23.885Z,0.80
2023-03-04T07:58:53.637Z,1.10
2023-03-04T08:01:29.050Z,0.93
2023-03-04T08:03:55.873Z,0.90
2023-03-04T08:06:23.161Z,1.08
2023-03-04T08:08:55.472Z,1.00
2023-03-04T08:11:22.196Z,0.77
2023-03-04T08:13:49.484Z,0.60
2023-03-04T08:16:18.823Z,0.80
2023-03-04T08:18:49.784Z,0.82
2023-03-04T08:21:19.355Z,0.75
2023-03-04T08:23:46.897Z,0.93
2023-03-04T08:26:17.616Z,0.98
2023-03-04T08:28:45.829Z,0.60
2023-03-04T08:31:17.245Z,1.10
2023-03-04T08:33:45.265Z,0.85
2023-03-04T08:36:12.264Z,0.77
2023-03-04T08:38:39.247Z,0.85
2023-03-04T08:41:05.897Z,1.15
2023-03-04T08:43:33.458Z,0.82
2023-03-04T08:46:00.470Z,0.75
2023-03-04T08:48:27.725Z,0.77
2023-03-04T08:50:54.400Z,0.73
2023-03-04T08:53:21.995Z,0.75
2023-03-04T08:55:50.610Z,0.80
2023-03-04T08:58:17.435Z,0.73
2023-03-04T09:00:48.433Z,0.60
2023-03-04T09:03:16.495Z,0.95
2023-03-04T09:05:45.652Z,0.70
2023-03-04T09:08:13.046Z,0.60
2023-03-04T09:10:39.813Z,0.70
2023-03-04T09:13:06.861Z,0.93
2023-03-04T09:15:37.515Z,0.35
2023-03-04T09:18:05.417Z,0.70
2023-03-04T09:20:32.572Z,0.80
2023-03-04T09:22:59.269Z,1.15
2023-03-04T09:25:29.355Z,1.00
2023-03-04T09:27:56.062Z,0.75
2023-03-04T09:30:22.890Z,0.90
2023-03-04T09:32:49.912Z,0.93
2023-03-04T09:35:16.666Z,0.90
2023-03-04T09:37:44.553Z,1.00
2023-03-04T09:40:24.560Z,0.60
2023-03-04T09:42:55.558Z,0.70
2023-03-04T09:45:29.162Z,0.90
2023-03-04T09:47:57.356Z,0.63
2023-03-04T09:50:24.125Z,0.70
2023-03-04T09:53:18.875Z,0.55
2023-03-04T09:55:50.710Z,0.40
2023-03-04T09:58:44.766Z,0.90
2023-03-04T10:01:20.982Z,0.30
2023-03-04T10:04:06.044Z,0.38
2023-03-04T10:06:33.749Z,0.75
2023-03-04T10:09:12.847Z,0.77
2023-03-04T10:11:45.830Z,0.50
2023-03-04T10:14:21.943Z,0.50
2023-03-04T10:16:57.694Z,0.50
2023-03-04T10:19:30.750Z,0.80
2023-03-04T10:21:57.442Z,0.68
2023-03-04T10:24:29.084Z,0.32
2023-03-04T10:27:07.554Z,0.70
2023-03-04T10:29:34.483Z,0.70
2023-03-04T10:32:01.254Z,0.55
2023-03-04T10:34:29.767Z,0.30
2023-03-04T10:37:02.206Z,0.70
2023-03-04T10:39:38.272Z,0.52
2023-03-04T10:42:14.674Z,0.35
2023-03-04T10:44:53.801Z,0.45
2023-03-04T10:47:22.769Z,0.60
2023-03-04T10:49:54.937Z,0.47
2023-03-04T10:52:28.106Z,0.40
2023-03-04T10:55:00.900Z,0.40
2023-03-04T10:57:37.531Z,0.43
2023-03-04T11:00:29.196Z,0.63
2023-03-04T11:03:22.218Z,0.77
2023-03-04T11:05:49.725Z,0.20
2023-03-04T11:08:22.365Z,0.20
2023-03-04T11:10:52.256Z,0.20
2023-03-04T11:13:24.206Z,0.63
2023-03-04T11:15:58.796Z,0.20
2023-03-04T11:18:37.066Z,0.20
2023-03-04T11:21:06.507Z,0.50
2023-03-04T11:23:52.590Z,0.30
2023-03-04T11:26:33.648Z,0.20
2023-03-04T11:29:12.984Z,0.32
2023-03-04T11:32:03.308Z,0.40
2023-03-04T11:34:51.305Z,0.30
2023-03-04T11:37:39.312Z,0.70
2023-03-04T11:40:14.259Z,0.30
2023-03-04T11:42:54.099Z,0.60
2023-03-04T11:45:34.789Z,0.50
2023-03-04T11:48:24.494Z,0.52
2023-03-04T11:51:37.359Z,0.25
2023-03-04T11:54:31.867Z,0.35
2023-03-04T11:57:37.112Z,0.30
2023-03-04T12:00:40.538Z,0.65
2023-03-04T12:03:48.513Z,0.63
2023-03-04T12:06:34.139Z,0.75
2023-03-04T12:09:38.309Z,0.88
2023-03-04T12:12:29.617Z,0.90
2023-03-04T12:15:02.393Z,0.90
2023-03-04T12:17:40.888Z,0.90
2023-03-04T12:20:42.045Z,0.43
2023-03-04T12:23:44.249Z,0.70
2023-03-04T12:26:22.357Z,0.70
2023-03-04T12:29:03.956Z,1.23
2023-03-04T12:31:45.535Z,1.00
2023-03-04T12:34:30.075Z,0.80
2023-03-04T12:37:27.704Z,0.70
2023-03-04T12:40:06.755Z,1.25
2023-03-04T12:42:45.419Z,0.85
2023-03-04T12:45:26.091Z,1.00
2023-03-04T12:48:07.130Z,1.42
2023-03-04T12:51:08.498Z,0.93
2023-03-04T12:53:56.584Z,0.98
2023-03-04T12:56:40.730Z,1.30
2023-03-04T12:59:16.555Z,1.17
2023-03-04T13:01:53.953Z,1.52
2023-03-04T13:04:40.664Z,0.60
2023-03-04T13:07:22.223Z,1.02
2023-03-04T13:09:58.992Z,1.35
2023-03-04T13:12:25.650Z,1.27
2023-03-04T13:15:27.208Z,0.80
2023-03-04T13:17:56.181Z,1.58
2023-03-04T13:20:35.582Z,1.15
2023-03-04T13:23:23.031Z,0.95
2023-03-04T13:25:55.442Z,1.55
2023-03-04T13:28:28.243Z,1.63
2023-03-04T13:30:59.533Z,1.42
2023-03-04T13:33:26.214Z,1.60
2023-03-04T13:36:02.175Z,1.90
2023-03-04T13:38:32.416Z,1.90
2023-03-04T13:41:23.442Z,1.38
2023-03-04T13:43:54.789Z,0.90
2023-03-04T13:46:23.674Z,1.90
2023-03-04T13:49:01.993Z,1.23
2023-03-04T13:51:44.091Z,1.20
2023-03-04T13:54:19.914Z,1.40
2023-03-04T13:57:08.949Z,1.30
2023-03-04T13:59:42.994Z,1.30
2023-03-04T14:02:22.258Z,1.63
2023-03-04T14:04:54.689Z,1.00
2023-03-04T14:07:25.479Z,1.33
2023-03-04T14:10:07.361Z,1.40
2023-03-04T14:12:41.638Z,1.40
2023-03-04T14:15:14.394Z,1.52
2023-03-04T14:17:45.849Z,1.17
2023-03-04T14:20:36.936Z,1.52
2023-03-04T14:23:31.869Z,1.90
2023-03-04T14:26:14.265Z,1.38
2023-03-04T14:28:54.242Z,1.55
2023-03-04T14:31:23.786Z,1.70
2023-03-04T14:34:02.434Z,1.60
2023-03-04T14:36:32.660Z,1.33
2023-03-04T14:39:05.910Z,1.30
2023-03-04T14:41:39.332Z,1.35
2023-03-04T14:44:36.071Z,1.23
2023-03-04T14:47:18.960Z,1.35
2023-03-04T14:49:46.454Z,2.08
2023-03-04T14:52:34.079Z,1.63
2023-03-04T14:55:24.346Z,1.23
2023-03-04T14:58:07.007Z,3.10
2023-03-04T15:00:41.074Z,1.95
2023-03-04T15:03:28.451Z,2.20
2023-03-04T15:05:55.909Z,1.58
2023-03-04T15:08:42.274Z,1.30
2023-03-04T15:11:21.085Z,1.77
2023-03-04T15:13:51.320Z,1.20
2023-03-04T15:16:23.669Z,1.60
2023-03-04T15:19:29.221Z,0.90
2023-03-04T15:24:33.196Z,0.70
2023-03-04T15:27:00.123Z,1.00
2023-03-04T15:29:26.910Z,0.68
2023-03-04T15:31:53.678Z,1.10
2023-03-04T15:34:21.064Z,1.15
2023-03-04T15:36:49.736Z,0.55
2023-03-04T15:39:18.093Z,1.15
2023-03-04T15:41:47.414Z,0.85
2023-03-04T15:44:15.548Z,0.63
2023-03-04T15:46:42.409Z,0.90
2023-03-04T15:49:09.323Z,1.00
2023-03-04T15:51:39.542Z,1.25
2023-03-04T15:54:10.737Z,0.47
2023-03-04T15:56:45.748Z,0.90
2023-03-04T15:59:14.385Z,0.90
2023-03-04T16:01:41.103Z,1.10
2023-03-04T16:04:20.383Z,1.00
2023-03-04T16:06:53.046Z,0.90
2023-03-04T16:09:21.709Z,1.02
2023-03-04T16:11:52.628Z,0.85
2023-03-04T16:14:21.674Z,0.82
2023-03-04T16:16:50.522Z,1.02
2023-03-04T16:19:17.288Z,1.73
2023-03-04T16:21:47.401Z,1.08
2023-03-04T16:24:21.958Z,3.37
2023-03-04T16:26:55.370Z,2.13
2023-03-04T16:29:22.250Z,1.60
2023-03-04T16:31:48.892Z,1.90
2023-03-04T16:34:16.450Z,1.38
2023-03-04T16:36:43.282Z,1.20
2023-03-04T16:39:27.633Z,0.90
2023-03-04T16:41:55.320Z,1.52
2023-03-04T16:44:21.911Z,1.80
2023-03-04T16:46:48.835Z,2.13
2023-03-04T16:49:15.491Z,1.17
2023-03-04T16:51:48.253Z,1.60
2023-03-04T16:54:23.633Z,1.70
2023-03-04T16:56:50.239Z,2.20
2023-03-04T16:59:17.537Z,1.60
2023-03-04T17:01:44.437Z,2.10
2023-03-04T17:04:11.356Z,3.38
2023-03-04T17:06:39.742Z,2.63
2023-03-04T17:09:07.944Z,6.95
2023-03-04T17:11:35.154Z,3.47
2023-03-04T17:14:03.778Z,2.20
2023-03-04T17:16:30.514Z,1.77
2023-03-04T17:18:57.361Z,2.90
2023-03-04T17:21:26.258Z,2.10
2023-03-04T17:23:54.073Z,2.05
2023-03-04T17:26:22.757Z,1.45
2023-03-04T17:28:50.404Z,1.75
2023-03-04T17:31:19.383Z,1.40
2023-03-04T17:33:47.952Z,1.70
2023-03-04T17:36:45.024Z,1.60
2023-03-04T17:39:15.969Z,1.40
2023-03-04T17:41:43.374Z,1.35
2023-03-04T17:44:14.667Z,3.05
2023-03-04T17:46:49.042Z,2.10
2023-03-04T17:49:23.008Z,2.20
2023-03-04T17:51:52.854Z,2.40
2023-03-04T17:54:19.495Z,2.20
2023-03-04T17:56:46.903Z,2.80
2023-03-04T17:59:16.275Z,2.50
2023-03-04T18:01:45.289Z,2.40
2023-03-04T18:04:12.941Z,1.70
2023-03-04T18:06:39.644Z,1.85
2023-03-04T18:09:06.981Z,1.63
2023-03-04T18:11:38.979Z,1.85
2023-03-04T18:14:09.010Z,1.90
2023-03-04T18:16:36.070Z,2.30
2023-03-04T18:19:03.600Z,1.80
2023-03-04T18:21:30.562Z,1.40
2023-03-04T18:23:59.236Z,2.15
2023-03-04T18:26:27.535Z,1.50
2023-03-04T18:28:55.817Z,1.77
2023-03-04T18:31:29.495Z,1.63
2023-03-04T18:33:59.195Z,1.70
2023-03-04T18:36:25.852Z,1.95
2023-03-04T18:38:57.291Z,2.60
2023-03-04T18:41:25.819Z,2.17
2023-03-04T18:43:54.783Z,2.47
2023-03-04T18:46:29.652Z,2.60
2023-03-04T18:49:01.779Z,2.80
2023-03-04T18:51:28.876Z,2.40
2023-03-04T18:53:55.567Z,2.38
2023-03-04T18:56:37.465Z,2.30
2023-03-04T18:59:42.872Z,2.55
2023-03-04T19:02:44.538Z,2.15
2023-03-04T19:05:27.435Z,1.92
2023-03-04T19:08:02.311Z,2.03
2023-03-04T19:10:29.178Z,1.73
2023-03-04T19:12:57.796Z,2.35
2023-03-04T19:15:25.032Z,1.65
2023-03-04T19:17:55.093Z,1.73
2023-03-04T19:20:26.275Z,2.00
2023-03-04T19:22:53.330Z,2.60
2023-03-04T19:25:19.962Z,2.88
2023-03-04T19:27:47.257Z,2.22
2023-03-04T19:30:16.017Z,2.67
2023-03-04T19:32:44.127Z,2.00
2023-03-04T19:35:10.872Z,1.92
2023-03-04T19:37:37.799Z,1.85
2023-03-04T19:40:05.063Z,2.05
2023-03-04T19:42:31.900Z,2.40
2023-03-04T19:44:59.161Z,1.83
2023-03-04T19:47:26.150Z,1.52
2023-03-04T19:49:52.912Z,2.33
2023-03-04T19:52:21.547Z,2.33
2023-03-04T19:54:48.231Z,3.08
2023-03-04T19:57:15.480Z,2.53
2023-03-04T19:59:42.371Z,2.33
2023-03-04T20:02:12.612Z,2.75
2023-03-04T20:04:39.525Z,2.58
2023-03-04T20:07:06.569Z,2.63
2023-03-04T20:09:35.518Z,2.75
2023-03-04T20:12:11.821Z,3.47
2023-03-04T20:14:49.113Z,3.28
